Saratoga-Weather Station Historical Data
Daily Summary for February 12, 2019 Units:  Metric    English   Both
Daily Weekly Monthly Yearly Custom
  High: Low: Average:
Temperature: 16.5 °C 4.4 °C 12.4 °C
Dew Point: 15.6 °C 1.1 °C 11.7 °C
Humidity: 100% 78% 96%
Wind Speed: 14.3km/h 0km/h 0.8km/h
Wind Gust: 17.7km/h - -
Wind- - SSE
Pressure: 1018.8 hPa 1010 hPa -
Precipitation: 34.8 mm    
Historical Graphs
 
 
Tabular Data for February 12, 2019
Time Temperature Dew Point Pressure Wind Wind Speed Wind Gust Humidity Rainfall Rate (Hourly) solar
00:04 13.3 °C 13.1 °C 1016.8 hPa Calm   3.2 km/h 99% 0 mm meteobridge W/m2
00:09 13.3 °C 13.1 °C 1016.8 hPa Calm     99% 0 mm meteobridge W/m2
00:14 13.2 °C 13 °C 1016.8 hPa Calm     99% 0 mm meteobridge W/m2
00:19 13.3 °C 13.1 °C 1016.8 hPa Calm     99% 0 mm meteobridge W/m2
00:24 13.4 °C 13.2 °C 1016.8 hPa Calm   1.6 km/h 99% 0 mm meteobridge W/m2
00:29 13.5 °C 13.3 °C 1016.8 hPa Calm   3.2 km/h 99% 0 mm meteobridge W/m2
00:34 13.6 °C 13.4 °C 1016.5 hPa Calm   1.6 km/h 99% 0 mm meteobridge W/m2
00:39 13.6 °C 13.4 °C 1016.5 hPa Calm   3.2 km/h 99% 0.25 mm meteobridge W/m2
00:44 13.7 °C 13.4 °C 1016.5 hPa Calm   3.2 km/h 98% 0.25 mm meteobridge W/m2
00:49 13.7 °C 13.4 °C 1016.5 hPa Calm   3.2 km/h 98% 0.25 mm meteobridge W/m2
00:54 13.7 °C 13.4 °C 1016.5 hPa Calm     98% 0.25 mm meteobridge W/m2
00:59 13.7 °C 13.2 °C 1016.5 hPa Calm   3.2 km/h 97% 0.25 mm meteobridge W/m2
01:04 13.6 °C 13.3 °C 1016.5 hPa Calm   1.6 km/h 98% 0.25 mm meteobridge W/m2
01:09 13.6 °C 13.3 °C 1016.5 hPa Calm     98% 0.25 mm meteobridge W/m2
01:14 13.6 °C 13.3 °C 1016.5 hPa Calm   6.4 km/h 98% 0.51 mm meteobridge W/m2
01:19 13.6 °C 13.3 °C 1016.5 hPa Calm   6.4 km/h 98% 0.51 mm meteobridge W/m2
01:24 13.7 °C 13.4 °C 1016.5 hPa Calm   1.6 km/h 98% 0.51 mm meteobridge W/m2
01:29 13.6 °C 13.3 °C 1016.1 hPa East 6.4 km/h 11.3 km/h 98% 0.51 mm meteobridge W/m2
01:34 13.6 °C 13.3 °C 1016.1 hPa Calm   6.4 km/h 98% 0.76 mm meteobridge W/m2
01:39 13.6 °C 13.3 °C 1016.1 hPa Calm   1.6 km/h 98% 0.51 mm meteobridge W/m2
01:44 13.6 °C 13.3 °C 1016.1 hPa Calm     98% 0.51 mm meteobridge W/m2
01:49 13.6 °C 13.3 °C 1016.1 hPa SE 1.4 km/h 3.2 km/h 98% 0.76 mm meteobridge W/m2
01:54 13.6 °C 13.3 °C 1016.1 hPa Calm     98% 0.76 mm meteobridge W/m2
01:59 13.6 °C 13.3 °C 1016.1 hPa Calm   3.2 km/h 98% 0.76 mm meteobridge W/m2
02:04 13.6 °C 13.4 °C 1016.1 hPa East 1.4 km/h 3.2 km/h 99% 1.02 mm meteobridge W/m2
02:09 13.6 °C 13.3 °C 1016.1 hPa Calm   1.6 km/h 98% 1.02 mm meteobridge W/m2
02:14 13.5 °C 13.2 °C 1016.1 hPa Calm   3.2 km/h 98% 0.76 mm meteobridge W/m2
02:19 13.6 °C 13.3 °C 1015.8 hPa Calm   8 km/h 98% 0.76 mm meteobridge W/m2
02:24 13.6 °C 13.1 °C 1016.1 hPa Calm   6.4 km/h 97% 0.76 mm meteobridge W/m2
02:29 13.6 °C 13.1 °C 1015.8 hPa SE 3.2 km/h 3.2 km/h 97% 0.76 mm meteobridge W/m2
02:34 13.7 °C 13.2 °C 1015.8 hPa Calm   1.6 km/h 97% 0.51 mm meteobridge W/m2
02:39 13.6 °C 13.1 °C 1016.1 hPa SE 3.2 km/h 3.2 km/h 97% 0.51 mm meteobridge W/m2
02:44 13.4 °C 12.9 °C 1015.8 hPa Calm     97% 0.76 mm meteobridge W/m2
02:49 13.4 °C 12.9 °C 1015.8 hPa Calm   1.6 km/h 97% 0.51 mm meteobridge W/m2
02:54 13.3 °C 13 °C 1015.5 hPa Calm     98% 0.51 mm meteobridge W/m2
02:59 13.1 °C 12.6 °C 1015.5 hPa Calm     97% 0.76 mm meteobridge W/m2
03:04 12.8 °C 12.3 °C 1015.8 hPa Calm     97% 0.76 mm meteobridge W/m2
03:09 12.7 °C 12.2 °C 1015.5 hPa Calm     97% 0.76 mm meteobridge W/m2
03:14 12.6 °C 12.1 °C 1015.5 hPa Calm   3.2 km/h 97% 0.76 mm meteobridge W/m2
03:19 12.4 °C 11.9 °C 1015.1 hPa East 3.2 km/h 6.4 km/h 97% 0.76 mm meteobridge W/m2
03:24 12.2 °C 11.7 °C 1015.8 hPa Calm   8 km/h 97% 0.76 mm meteobridge W/m2
03:29 12.1 °C 11.6 °C 1015.1 hPa East 3.2 km/h 6.4 km/h 97% 0.76 mm meteobridge W/m2
03:34 12 °C 11.7 °C 1015.5 hPa Calm     98% 0.76 mm meteobridge W/m2
03:39 12 °C 11.7 °C 1015.5 hPa SSE 1.4 km/h 6.4 km/h 98% 0.51 mm meteobridge W/m2
03:44 12.4 °C 12.2 °C 1015.5 hPa Calm   3.2 km/h 99% 0.51 mm meteobridge W/m2
03:49 12.9 °C 12.7 °C 1015.1 hPa ESE 6.4 km/h 8 km/h 99% 0.51 mm meteobridge W/m2
03:54 13.2 °C 13 °C 1015.1 hPa Calm     99% 0.51 mm meteobridge W/m2
03:59 13.3 °C 13.1 °C 1015.1 hPa ESE 1.4 km/h 4.8 km/h 99% 0.51 mm meteobridge W/m2
04:04 13.4 °C 13.2 °C 1015.1 hPa Calm   6.4 km/h 99% 0.25 mm meteobridge W/m2
04:09 13.4 °C 13.2 °C 1014.8 hPa Calm   1.6 km/h 99% 0.51 mm meteobridge W/m2
04:14 13.4 °C 13.2 °C 1014.8 hPa Calm     99% 0.76 mm meteobridge W/m2
04:19 13.5 °C 13.3 °C 1014.8 hPa Calm   14.5 km/h 99% 0.76 mm meteobridge W/m2
04:24 13.6 °C 13.3 °C 1014.8 hPa Calm   12.9 km/h 98% 1.27 mm meteobridge W/m2
04:29 13.7 °C 13.5 °C 1014.8 hPa ESE 1.4 km/h 3.2 km/h 99% 1.27 mm meteobridge W/m2
04:34 13.7 °C 13.4 °C 1014.4 hPa Calm     98% 1.52 mm meteobridge W/m2
04:39 13.7 °C 13.4 °C 1014.4 hPa East 1.4 km/h 6.4 km/h 98% 1.52 mm meteobridge W/m2
04:44 13.7 °C 13.4 °C 1014.4 hPa Calm   3.2 km/h 98% 1.78 mm meteobridge W/m2
04:49 13.7 °C 13.4 °C 1014.1 hPa Calm     98% 1.78 mm meteobridge W/m2
04:54 13.7 °C 13.5 °C 1014.1 hPa Calm     99% 2.29 mm meteobridge W/m2
04:59 13.7 °C 13.5 °C 1014.1 hPa Calm   1.6 km/h 99% 2.29 mm meteobridge W/m2
05:04 13.2 °C 12.3 °C 1014.4 hPa Calm   1.6 km/h 94% 2.54 mm meteobridge W/m2
05:09 12.6 °C 11.8 °C 1014.1 hPa ENE 3.2 km/h 3.2 km/h 95% 2.79 mm meteobridge W/m2
05:14 12.2 °C 11.7 °C 1014.1 hPa Calm     97% 3.3 mm meteobridge W/m2
05:19 12.1 °C 11.6 °C 1014.1 hPa Calm     97% 3.3 mm meteobridge W/m2
05:24 11.8 °C 11.3 °C 1014.1 hPa Calm     97% 2.79 mm meteobridge W/m2
05:29 11.7 °C 11.2 °C 1014.1 hPa Calm     97% 2.79 mm meteobridge W/m2
05:34 11.5 °C 11 °C 1013.8 hPa Calm   1.6 km/h 97% 2.54 mm meteobridge W/m2
05:39 11.4 °C 11.1 °C 1014.1 hPa Calm     98% 2.79 mm meteobridge W/m2
05:44 11.4 °C 11.1 °C 1013.8 hPa Calm     98% 2.54 mm meteobridge W/m2
05:49 11.3 °C 11 °C 1014.1 hPa Calm     98% 2.29 mm meteobridge W/m2
05:54 11.3 °C 11 °C 1013.8 hPa Calm     98% 2.03 mm meteobridge W/m2
05:59 11.3 °C 11 °C 1013.8 hPa Calm     98% 1.78 mm meteobridge W/m2
06:04 11.3 °C 11.1 °C 1013.8 hPa Calm     99% 1.52 mm meteobridge W/m2
06:09 11.3 °C 11.1 °C 1013.8 hPa Calm     99% 1.02 mm meteobridge W/m2
06:14 11.4 °C 11.2 °C 1013.8 hPa Calm     99% 0.25 mm meteobridge W/m2
06:19 11.4 °C 11.2 °C 1013.8 hPa ENE 1.4 km/h 4.8 km/h 99% 0.25 mm meteobridge W/m2
06:24 12.4 °C 12.2 °C 1013.8 hPa Calm   1.6 km/h 99% 0.25 mm meteobridge W/m2
06:29 12.6 °C 12.6 °C 1013.8 hPa Calm     100% 0.76 mm meteobridge W/m2
06:34 13.2 °C 13.2 °C 1013.4 hPa SE 1.4 km/h 6.4 km/h 100% 0.76 mm meteobridge W/m2
06:39 13.7 °C 13.7 °C 1013.8 hPa Calm   3.2 km/h 100% 0.51 mm meteobridge W/m2
06:44 13.8 °C 13.8 °C 1013.4 hPa Calm     100% 0.51 mm meteobridge W/m2
06:49 13.8 °C 13.8 °C 1013.8 hPa Calm   1.6 km/h 100% 0.51 mm meteobridge W/m2
06:54 13.8 °C 13.8 °C 1013.8 hPa Calm   1.6 km/h 100% 0.51 mm meteobridge W/m2
06:59 13.9 °C 13.9 °C 1013.4 hPa East 3.2 km/h 6.4 km/h 100% 0.51 mm meteobridge W/m2
07:04 13.9 °C 13.9 °C 1013.8 hPa Calm     100% 0.51 mm meteobridge W/m2
07:09 14 °C 14 °C 1013.4 hPa East 3.2 km/h 4.8 km/h 100% 0.51 mm meteobridge W/m2
07:14 14.1 °C 14.1 °C 1013.4 hPa Calm   1.6 km/h 100% 0.51 mm meteobridge W/m2
07:19 14.1 °C 14.1 °C 1013.4 hPa Calm     100% 0.51 mm meteobridge W/m2
07:24 14.1 °C 13.9 °C 1013.1 hPa Calm   8 km/h 99% 0.76 mm meteobridge W/m2
07:29 14.2 °C 14 °C 1013.1 hPa Calm   1.6 km/h 99% 0.25 mm meteobridge W/m2
07:34 14.2 °C 13.9 °C 1013.1 hPa Calm   6.4 km/h 98% 0.25 mm meteobridge W/m2
07:39 14.2 °C 13.9 °C 1013.4 hPa SE 6.4 km/h 8 km/h 98% 0.51 mm meteobridge W/m2
07:44 14.2 °C 14 °C 1013.4 hPa Calm   3.2 km/h 99% 0.51 mm meteobridge W/m2
07:49 14.3 °C 14.1 °C 1013.1 hPa Calm     99% 0.76 mm meteobridge W/m2
07:54 14.3 °C 14.1 °C 1013.1 hPa Calm   3.2 km/h 99% 0.76 mm meteobridge W/m2
07:59 14.3 °C 14.1 °C 1013.1 hPa East 3.2 km/h 3.2 km/h 99% 0.76 mm meteobridge W/m2
08:04 14.4 °C 14.2 °C 1013.1 hPa Calm   1.6 km/h 99% 0.76 mm meteobridge W/m2
08:09 14.4 °C 14.1 °C 1013.1 hPa Calm   1.6 km/h 98% 0.76 mm meteobridge W/m2
08:14 14.4 °C 14.1 °C 1013.1 hPa Calm     98% 0.76 mm meteobridge W/m2
08:19 14.5 °C 14.2 °C 1013.1 hPa ESE 3.2 km/h 4.8 km/h 98% 0.76 mm meteobridge W/m2
08:24 14.5 °C 14.2 °C 1013.1 hPa East 3.2 km/h 6.4 km/h 98% 0.51 mm meteobridge W/m2
08:29 14.6 °C 14.3 °C 1013.1 hPa SSE 1.4 km/h 1.6 km/h 98% 0.51 mm meteobridge W/m2
08:34 14.6 °C 14.3 °C 1013.1 hPa ENE 4.7 km/h 4.8 km/h 98% 0.51 mm meteobridge W/m2
08:39 14.7 °C 14.5 °C 1012.8 hPa ESE 3.2 km/h 6.4 km/h 99% 0.25 mm meteobridge W/m2
08:44 14.8 °C 14.5 °C 1012.8 hPa Calm   1.6 km/h 98% 0.25 mm meteobridge W/m2
08:49 14.9 °C 14.7 °C 1013.1 hPa Calm   1.6 km/h 99% 0 mm meteobridge W/m2
08:54 14.9 °C 14.7 °C 1012.8 hPa Calm   1.6 km/h 99% 0 mm meteobridge W/m2
08:59 15 °C 14.8 °C 1012.8 hPa Calm   8 km/h 99% 0 mm meteobridge W/m2
09:04 15 °C 14.7 °C 1012.8 hPa Calm   6.4 km/h 98% 0 mm meteobridge W/m2
09:09 15.1 °C 14.8 °C 1012.8 hPa Calm   3.2 km/h 98% 0 mm meteobridge W/m2
09:14 15.1 °C 14.8 °C 1012.8 hPa ESE 6.4 km/h 9.7 km/h 98% 0 mm meteobridge W/m2
09:19 15.1 °C 14.8 °C 1012.8 hPa Calm   8 km/h 98% 0 mm meteobridge W/m2
09:24 15.2 °C 14.9 °C 1012.8 hPa Calm     98% 0 mm meteobridge W/m2
09:29 15.2 °C 14.9 °C 1012.8 hPa Calm   6.4 km/h 98% 0 mm meteobridge W/m2
09:34 15.2 °C 14.9 °C 1012.8 hPa Calm     98% 0 mm meteobridge W/m2
09:39 15.2 °C 14.9 °C 1012.8 hPa Calm   9.7 km/h 98% 0 mm meteobridge W/m2
09:44 15.3 °C 15 °C 1012.4 hPa East 3.2 km/h 11.3 km/h 98% 0 mm meteobridge W/m2
09:49 15.3 °C 15 °C 1012.8 hPa ESE 3.2 km/h 8 km/h 98% 0 mm meteobridge W/m2
09:54 15.4 °C 14.9 °C 1012.4 hPa ESE 3.2 km/h 6.4 km/h 97% 0 mm meteobridge W/m2
09:59 15.4 °C 14.9 °C 1012.4 hPa Calm     97% 0 mm meteobridge W/m2
10:04 15.4 °C 14.9 °C 1012.4 hPa SSE 1.4 km/h 6.4 km/h 97% 0 mm meteobridge W/m2
10:09 15.4 °C 14.9 °C 1012.4 hPa Calm   3.2 km/h 97% 0 mm meteobridge W/m2
10:14 15.4 °C 14.9 °C 1012.4 hPa Calm   1.6 km/h 97% 0 mm meteobridge W/m2
10:19 15.4 °C 14.9 °C 1012.4 hPa Calm   1.6 km/h 97% 0 mm meteobridge W/m2
10:24 15.4 °C 14.9 °C 1012.1 hPa Calm   6.4 km/h 97% 0 mm meteobridge W/m2
10:29 15.5 °C 15 °C 1012.1 hPa Calm   6.4 km/h 97% 0 mm meteobridge W/m2
10:34 15.6 °C 15.1 °C 1012.1 hPa ESE 1.4 km/h 11.3 km/h 97% 0 mm meteobridge W/m2
10:39 15.7 °C 15.2 °C 1012.1 hPa ESE 6.4 km/h 8 km/h 97% 0 mm meteobridge W/m2
10:44 15.8 °C 15.3 °C 1012.1 hPa Calm   6.4 km/h 97% 0 mm meteobridge W/m2
10:49 15.9 °C 15.3 °C 1012.1 hPa Calm   1.6 km/h 96% 0 mm meteobridge W/m2
10:54 15.9 °C 15.3 °C 1012.1 hPa SE 3.2 km/h 12.9 km/h 96% 0 mm meteobridge W/m2
10:59 15.9 °C 15.3 °C 1012.1 hPa Calm   6.4 km/h 96% 0 mm meteobridge W/m2
11:04 16 °C 15.4 °C 1011.7 hPa ESE 6.4 km/h 6.4 km/h 96% 0 mm meteobridge W/m2
11:09 16.1 °C 15.5 °C 1011.7 hPa ESE 6.4 km/h 8 km/h 96% 0 mm meteobridge W/m2
11:14 16.1 °C 15.3 °C 1011.7 hPa SSE 1.4 km/h 6.4 km/h 95% 0 mm meteobridge W/m2
11:19 16.2 °C 15.4 °C 1011.4 hPa East 3.2 km/h 6.4 km/h 95% 0 mm meteobridge W/m2
11:24 16.2 °C 15.4 °C 1011.4 hPa SE 1.4 km/h 9.7 km/h 95% 0 mm meteobridge W/m2
11:29 16.3 °C 15.5 °C 1011.4 hPa East 7.9 km/h 9.7 km/h 95% 0 mm meteobridge W/m2
11:34 16.3 °C 15.5 °C 1011.4 hPa Calm   11.3 km/h 95% 0 mm meteobridge W/m2
11:39 16.3 °C 15.5 °C 1011.4 hPa ESE 6.4 km/h 8 km/h 95% 0 mm meteobridge W/m2
11:44 16.3 °C 15.3 °C 1011.1 hPa Calm   8 km/h 94% 0 mm meteobridge W/m2
11:48 16.3 °C 15.3 °C 1011.1 hPa East 3.2 km/h 12.9 km/h 94% 0 mm meteobridge W/m2
11:54 16.3 °C 15.3 °C 1010.7 hPa Calm     94% 0 mm meteobridge W/m2
11:59 16.3 °C 15.3 °C 1010.7 hPa Calm     94% 0 mm meteobridge W/m2
12:04 16.4 °C 15.4 °C 1010.4 hPa Calm     94% 0 mm meteobridge W/m2
12:09 16.5 °C 15.5 °C 1010 hPa Calm     94% 0 mm meteobridge W/m2
12:14 16.5 °C 15.5 °C 1010 hPa Calm     94% 0 mm meteobridge W/m2
12:19 16.4 °C 15.6 °C 1010 hPa Calm     95% 0.51 mm meteobridge W/m2
12:24 16.2 °C 15.6 °C 1010 hPa Calm     96% 1.52 mm meteobridge W/m2
12:29 15.9 °C 15.3 °C 1011.7 hPa Calm     96% 3.81 mm meteobridge W/m2
12:34 15.3 °C 14.2 °C 1011.1 hPa Calm     93% 8.38 mm meteobridge W/m2
12:39 14.8 °C 14 °C 1011.7 hPa Calm     95% 10.41 mm meteobridge W/m2
12:44 14.6 °C 14.1 °C 1011.7 hPa Calm     97% 11.43 mm meteobridge W/m2
12:49 14.4 °C 13.8 °C 1011.7 hPa Calm     96% 11.68 mm meteobridge W/m2
12:54 14.2 °C 13.7 °C 1011.7 hPa Calm     97% 12.19 mm meteobridge W/m2
12:59 14 °C 13.5 °C 1011.7 hPa Calm     97% 12.45 mm meteobridge W/m2
13:04 13.9 °C 13.4 °C 1011.7 hPa Calm     97% 12.7 mm meteobridge W/m2
13:09 13.8 °C 13.3 °C 1011.7 hPa Calm     97% 13.21 mm meteobridge W/m2
13:14 13.8 °C 13.3 °C 1011.7 hPa Calm     97% 13.46 mm meteobridge W/m2
13:19 13.7 °C 13.2 °C 1011.7 hPa Calm     97% 13.21 mm meteobridge W/m2
13:24 13.7 °C 13.4 °C 1011.4 hPa Calm     98% 12.19 mm meteobridge W/m2
13:29 13.7 °C 13.4 °C 1011.4 hPa Calm     98% 10.16 mm meteobridge W/m2
13:34 13.7 °C 13.4 °C 1011.1 hPa Calm     98% 5.59 mm meteobridge W/m2
13:39 13.7 °C 13.4 °C 1011.1 hPa Calm     98% 3.81 mm meteobridge W/m2
13:44 13.7 °C 13.4 °C 1011.4 hPa Calm     98% 3.05 mm meteobridge W/m2
13:49 13.7 °C 13.4 °C 1011.7 hPa Calm     98% 3.3 mm meteobridge W/m2
13:54 13.7 °C 13.4 °C 1011.7 hPa Calm     98% 3.3 mm meteobridge W/m2
13:59 13.6 °C 13.4 °C 1011.7 hPa Calm     99% 3.3 mm meteobridge W/m2
14:04 13.6 °C 13.1 °C 1011.7 hPa Calm     97% 3.05 mm meteobridge W/m2
14:09 13.4 °C 12.8 °C 1011.7 hPa Calm     96% 2.79 mm meteobridge W/m2
14:14 13.2 °C 12.6 °C 1011.7 hPa Calm     96% 2.79 mm meteobridge W/m2
14:19 13.1 °C 12.6 °C 1011.7 hPa Calm     97% 2.79 mm meteobridge W/m2
14:24 12.9 °C 12.4 °C 1011.7 hPa Calm     97% 3.05 mm meteobridge W/m2
14:29 12.8 °C 12.3 °C 1011.7 hPa Calm     97% 3.3 mm meteobridge W/m2
14:34 12.8 °C 12.5 °C 1012.1 hPa Calm     98% 3.56 mm meteobridge W/m2
14:39 12.8 °C 12.5 °C 1012.1 hPa Calm     98% 3.81 mm meteobridge W/m2
14:44 12.8 °C 12.5 °C 1012.1 hPa Calm     98% 3.81 mm meteobridge W/m2
14:49 12.7 °C 12.4 °C 1011.7 hPa Calm     98% 3.56 mm meteobridge W/m2
14:54 12.7 °C 12.2 °C 1011.7 hPa Calm     97% 3.3 mm meteobridge W/m2
14:59 12.6 °C 12.1 °C 1011.7 hPa Calm     97% 3.56 mm meteobridge W/m2
15:04 12.4 °C 11.9 °C 1011.7 hPa Calm     97% 3.56 mm meteobridge W/m2
15:08 12.4 °C 12.1 °C 1011.4 hPa Calm     98% 3.56 mm meteobridge W/m2
15:14 12.4 °C 12.1 °C 1011.1 hPa Calm     98% 3.56 mm meteobridge W/m2
15:19 12.3 °C 12 °C 1011.4 hPa Calm     98% 3.3 mm meteobridge W/m2
15:24 12.4 °C 12.1 °C 1011.4 hPa Calm     98% 3.3 mm meteobridge W/m2
15:29 12.3 °C 12.1 °C 1011.4 hPa Calm     99% 2.79 mm meteobridge W/m2
15:34 12.4 °C 12.2 °C 1011.4 hPa Calm     99% 2.29 mm meteobridge W/m2
15:39 12.3 °C 12.1 °C 1011.1 hPa Calm     99% 2.03 mm meteobridge W/m2
15:44 12.3 °C 12 °C 1011.1 hPa Calm     98% 1.78 mm meteobridge W/m2
15:49 12.3 °C 12 °C 1011.4 hPa Calm     98% 1.78 mm meteobridge W/m2
15:54 12.3 °C 12.1 °C 1011.4 hPa Calm     99% 1.52 mm meteobridge W/m2
15:59 12.3 °C 12.1 °C 1011.4 hPa Calm     99% 1.02 mm meteobridge W/m2
16:04 12.3 °C 12.1 °C 1011.4 hPa Calm     99% 1.02 mm meteobridge W/m2
16:09 12.3 °C 12.1 °C 1011.4 hPa Calm     99% 0.76 mm meteobridge W/m2
16:14 12.3 °C 12.1 °C 1011.4 hPa Calm     99% 1.02 mm meteobridge W/m2
16:19 12.3 °C 12.1 °C 1011.1 hPa Calm     99% 1.27 mm meteobridge W/m2
16:24 12.3 °C 12.1 °C 1011.4 hPa Calm     99% 1.02 mm meteobridge W/m2
16:29 12.3 °C 12.1 °C 1011.4 hPa Calm     99% 1.02 mm meteobridge W/m2
16:34 12.2 °C 12 °C 1011.4 hPa Calm     99% 1.02 mm meteobridge W/m2
16:39 12.2 °C 12 °C 1011.4 hPa Calm     99% 1.27 mm meteobridge W/m2
16:44 12.2 °C 12 °C 1011.7 hPa Calm     99% 1.27 mm meteobridge W/m2
16:49 12.2 °C 11.9 °C 1011.7 hPa Calm     98% 1.02 mm meteobridge W/m2
16:54 12.2 °C 12 °C 1011.7 hPa Calm     99% 1.02 mm meteobridge W/m2
16:59 12.2 °C 12 °C 1011.7 hPa Calm     99% 1.52 mm meteobridge W/m2
17:04 12.2 °C 12 °C 1011.7 hPa Calm     99% 1.52 mm meteobridge W/m2
17:09 12.2 °C 12 °C 1012.1 hPa Calm     99% 2.03 mm meteobridge W/m2
17:14 12.2 °C 12 °C 1012.4 hPa Calm     99% 2.29 mm meteobridge W/m2
17:19 12.2 °C 12 °C 1012.8 hPa Calm     99% 2.79 mm meteobridge W/m2
17:24 12.1 °C 11.9 °C 1012.8 hPa Calm     99% 4.83 mm meteobridge W/m2
17:29 12.1 °C 11.8 °C 1012.8 hPa Calm     98% 5.59 mm meteobridge W/m2
17:34 12.1 °C 11.8 °C 1012.8 hPa Calm     98% 6.1 mm meteobridge W/m2
17:39 12 °C 11.7 °C 1012.8 hPa Calm     98% 5.84 mm meteobridge W/m2
17:44 11.9 °C 11.7 °C 1013.1 hPa Calm     99% 5.84 mm meteobridge W/m2
17:49 11.9 °C 11.7 °C 1012.8 hPa Calm     99% 5.84 mm meteobridge W/m2
17:54 11.9 °C 11.7 °C 1013.1 hPa Calm     99% 5.84 mm meteobridge W/m2
17:59 11.9 °C 11.7 °C 1013.1 hPa Calm     99% 5.33 mm meteobridge W/m2
18:04 11.9 °C 11.7 °C 1013.4 hPa Calm     99% 5.08 mm meteobridge W/m2
18:09 11.8 °C 11.5 °C 1012.8 hPa Calm     98% 4.57 mm meteobridge W/m2
18:14 11.8 °C 11.5 °C 1013.1 hPa Calm     98% 4.06 mm meteobridge W/m2
18:19 11.8 °C 11.5 °C 1013.4 hPa Calm     98% 3.3 mm meteobridge W/m2
18:24 11.8 °C 11.5 °C 1013.1 hPa Calm     98% 1.27 mm meteobridge W/m2
18:29 11.8 °C 11.5 °C 1013.1 hPa Calm     98% 0.51 mm meteobridge W/m2
18:34 11.8 °C 11.5 °C 1013.4 hPa Calm     98% 0.25 mm meteobridge W/m2
18:39 11.8 °C 11.5 °C 1013.4 hPa Calm     98% 0 mm meteobridge W/m2
18:44 11.8 °C 11.5 °C 1013.4 hPa Calm     98% 0 mm meteobridge W/m2
18:49 11.8 °C 11.5 °C 1013.4 hPa Calm     98% 0 mm meteobridge W/m2
18:54 11.7 °C 11.4 °C 1013.4 hPa Calm     98% 0 mm meteobridge W/m2
18:59 11.7 °C 11.4 °C 1013.4 hPa Calm     98% 0 mm meteobridge W/m2
19:04 11.7 °C 11.4 °C 1013.4 hPa Calm     98% 0 mm meteobridge W/m2
19:09 11.6 °C 11.3 °C 1013.4 hPa Calm     98% 0 mm meteobridge W/m2
19:14 11.6 °C 11.3 °C 1013.1 hPa Calm     98% 0 mm meteobridge W/m2
19:19 11.6 °C 11.3 °C 1013.4 hPa Calm     98% 0 mm meteobridge W/m2
19:24 11.5 °C 11 °C 1013.8 hPa Calm     97% 0 mm meteobridge W/m2
19:29 11.3 °C 10.7 °C 1014.1 hPa Calm     96% 0 mm meteobridge W/m2
19:34 11.1 °C 10.2 °C 1013.8 hPa Calm     94% 0 mm meteobridge W/m2
19:39 10.9 °C 10 °C 1014.1 hPa Calm     94% 0 mm meteobridge W/m2
19:44 10.7 °C 9.9 °C 1014.1 hPa Calm     95% 0 mm meteobridge W/m2
19:49 10.5 °C 9.7 °C 1014.4 hPa Calm     95% 0 mm meteobridge W/m2
19:54 10.3 °C 9.7 °C 1014.4 hPa Calm     96% 0 mm meteobridge W/m2
19:59 10.2 °C 9.6 °C 1014.4 hPa Calm     96% 0 mm meteobridge W/m2
20:04 10.1 °C 9.5 °C 1014.4 hPa Calm     96% 0 mm meteobridge W/m2
20:09 9.9 °C 9 °C 1014.8 hPa Calm     94% 0 mm meteobridge W/m2
20:14 9.8 °C 9.2 °C 1014.8 hPa Calm     96% 0 mm meteobridge W/m2
20:19 9.7 °C 9.1 °C 1015.1 hPa Calm     96% 0 mm meteobridge W/m2
20:24 9.6 °C 9 °C 1015.1 hPa Calm     96% 0 mm meteobridge W/m2
20:29 9.6 °C 8.8 °C 1015.1 hPa Calm     95% 0 mm meteobridge W/m2
20:34 9.4 °C 8.8 °C 1015.1 hPa Calm     96% 0 mm meteobridge W/m2
20:39 9.4 °C 8.3 °C 1015.5 hPa Calm     93% 0 mm meteobridge W/m2
20:44 9.2 °C 7.8 °C 1015.5 hPa Calm     91% 0 mm meteobridge W/m2
20:49 8.9 °C 6.9 °C 1015.8 hPa Calm   6.4 km/h 87% 0 mm meteobridge W/m2
20:54 8.8 °C 6.9 °C 1015.8 hPa Calm   11.3 km/h 88% 0 mm meteobridge W/m2
20:59 8.6 °C 6.4 °C 1015.8 hPa Calm   3.2 km/h 86% 0 mm meteobridge W/m2
21:04 8.3 °C 5.8 °C 1016.1 hPa WNW 4.7 km/h 11.3 km/h 84% 0 mm meteobridge W/m2
21:09 8.3 °C 5.4 °C 1016.1 hPa WSW 4.7 km/h 17.7 km/h 82% 0 mm meteobridge W/m2
21:14 8.2 °C 4.8 °C 1016.1 hPa Calm   16.1 km/h 79% 0 mm meteobridge W/m2
21:19 8 °C 5.6 °C 1016.1 hPa NNW 1.4 km/h 4.8 km/h 85% 0 mm meteobridge W/m2
21:24 7.7 °C 4.3 °C 1016.5 hPa WSW 14.3 km/h 17.7 km/h 79% 0 mm meteobridge W/m2
21:29 7.6 °C 4.2 °C 1016.5 hPa NW 9.7 km/h 9.7 km/h 79% 0 mm meteobridge W/m2
21:34 7.3 °C 4.9 °C 1016.8 hPa WNW 7.9 km/h 12.9 km/h 85% 0 mm meteobridge W/m2
21:39 7.2 °C 3.6 °C 1016.5 hPa WNW 9.7 km/h 12.9 km/h 78% 0 mm meteobridge W/m2
21:44 7.2 °C 4.2 °C 1016.5 hPa West 1.4 km/h 14.5 km/h 81% 0 mm meteobridge W/m2
21:49 7 °C 4.3 °C 1016.8 hPa WNW 1.4 km/h 3.2 km/h 83% 0 mm meteobridge W/m2
21:54 6.8 °C 3.8 °C 1016.8 hPa NW 1.4 km/h 4.8 km/h 81% 0 mm meteobridge W/m2
21:59 6.7 °C 3.7 °C 1016.8 hPa Calm   4.8 km/h 81% 0 mm meteobridge W/m2
22:04 6.6 °C 3.9 °C 1017.2 hPa Calm     83% 0 mm meteobridge W/m2
22:09 6.4 °C 3.9 °C 1017.5 hPa Calm   1.6 km/h 84% 0 mm meteobridge W/m2
22:14 6.4 °C 3.6 °C 1017.8 hPa Calm   1.6 km/h 82% 0 mm meteobridge W/m2
22:19 6.3 °C 3.6 °C 1017.8 hPa Calm   4.8 km/h 83% 0 mm meteobridge W/m2
22:24 6.2 °C 3.7 °C 1018.2 hPa Calm   1.6 km/h 84% 0 mm meteobridge W/m2
22:29 6 °C 3.3 °C 1018.2 hPa Calm     83% 0 mm meteobridge W/m2
22:34 5.8 °C 3 °C 1018.2 hPa NW 1.4 km/h 8 km/h 82% 0 mm meteobridge W/m2
22:39 5.8 °C 2.8 °C 1018.5 hPa Calm   11.3 km/h 81% 0 mm meteobridge W/m2
22:44 5.8 °C 3 °C 1018.2 hPa NW 7.9 km/h 14.5 km/h 82% 0 mm meteobridge W/m2
22:49 5.8 °C 2.6 °C 1018.5 hPa NNE 6.4 km/h 9.7 km/h 80% 0 mm meteobridge W/m2
22:54 5.7 °C 2.7 °C 1018.2 hPa Calm   3.2 km/h 81% 0 mm meteobridge W/m2
22:59 5.7 °C 2.3 °C 1018.5 hPa Calm   1.6 km/h 79% 0 mm meteobridge W/m2
23:04 5.6 °C 2.6 °C 1018.5 hPa Calm     81% 0 mm meteobridge W/m2
23:09 5.4 °C 2.6 °C 1018.5 hPa Calm     82% 0 mm meteobridge W/m2
23:14 5.3 °C 2.1 °C 1018.2 hPa Calm   6.4 km/h 80% 0 mm meteobridge W/m2
23:19 5.3 °C 2.1 °C 1018.2 hPa Calm   3.2 km/h 80% 0 mm meteobridge W/m2
23:24 5.2 °C 1.9 °C 1018.5 hPa WNW 1.4 km/h 9.7 km/h 79% 0 mm meteobridge W/m2
23:29 5.1 °C 2.1 °C 1018.5 hPa NNE 6.4 km/h 6.4 km/h 81% 0 mm meteobridge W/m2
23:34 4.9 °C 2.1 °C 1018.5 hPa Calm   3.2 km/h 82% 0 mm meteobridge W/m2
23:39 4.8 °C 2.2 °C 1018.5 hPa Calm     83% 0 mm meteobridge W/m2
23:44 4.7 °C 1.7 °C 1018.8 hPa Calm   3.2 km/h 81% 0 mm meteobridge W/m2
23:49 4.6 °C 1.1 °C 1018.8 hPa Calm   4.8 km/h 78% 0 mm meteobridge W/m2
23:53 4.5 °C 1.5 °C 1018.8 hPa Calm   3.2 km/h 81% 0 mm meteobridge W/m2
23:59 4.4 °C 1.3 °C 1018.8 hPa Calm   3.2 km/h 80% 0 mm meteobridge W/m2
Juneau County Weather
Compliments of Weather Underground - 2.5 mb